createdAt,value
2018-07-10T00:02:35.100Z,7.77
2018-07-10T00:07:18.559Z,7.43
2018-07-10T00:11:56.350Z,6.60
2018-07-10T00:14:24.948Z,6.50
2018-07-10T00:16:53.477Z,6.90
2018-07-10T00:19:22.175Z,6.53
2018-07-10T00:21:50.787Z,7.23
2018-07-10T00:24:19.365Z,8.53
2018-07-10T00:26:47.961Z,8.30
2018-07-10T00:29:16.510Z,8.63
2018-07-10T00:31:46.262Z,7.90
2018-07-10T00:34:14.914Z,7.60
2018-07-10T00:36:43.482Z,8.40
2018-07-10T00:39:12.107Z,8.07
2018-07-10T00:41:41.701Z,8.57
2018-07-10T00:44:10.534Z,9.00
2018-07-10T00:46:40.417Z,8.77
2018-07-10T00:49:08.995Z,8.60
2018-07-10T00:51:41.464Z,8.90
2018-07-10T00:54:10.462Z,9.00
2018-07-10T00:56:39.136Z,8.57
2018-07-10T00:59:08.193Z,8.53
2018-07-10T01:01:37.040Z,8.93
2018-07-10T01:04:05.765Z,8.70
2018-07-10T01:06:34.397Z,9.10
2018-07-10T01:09:03.051Z,9.30
2018-07-10T01:11:31.614Z,8.90
2018-07-10T01:14:00.218Z,9.00
2018-07-10T01:16:36.038Z,8.60
2018-07-10T01:19:06.886Z,8.27
2018-07-10T01:21:35.496Z,8.93
2018-07-10T01:24:04.988Z,8.40
2018-07-10T01:26:36.222Z,8.40
2018-07-10T01:29:10.793Z,8.57
2018-07-10T01:31:40.693Z,8.33
2018-07-10T01:34:09.308Z,9.43
2018-07-10T01:38:02.282Z,9.23
2018-07-10T01:40:30.870Z,8.63
2018-07-10T01:42:59.470Z,9.40
2018-07-10T01:45:28.123Z,8.93
2018-07-10T01:47:56.939Z,9.93
2018-07-10T01:50:25.534Z,9.67
2018-07-10T01:52:54.222Z,8.77
2018-07-10T01:55:22.840Z,10.23
2018-07-10T01:57:53.573Z,10.00
2018-07-10T02:00:33.346Z,9.90
2018-07-10T02:03:02.038Z,9.90
2018-07-10T02:05:31.296Z,9.77
2018-07-10T02:07:59.941Z,9.70
2018-07-10T02:10:28.534Z,10.30
2018-07-10T02:12:57.529Z,9.83
2018-07-10T02:15:26.733Z,9.90
2018-07-10T02:17:55.383Z,9.67
2018-07-10T02:20:25.003Z,9.70
2018-07-10T02:22:53.879Z,9.80
2018-07-10T02:25:22.683Z,9.27
2018-07-10T02:27:51.360Z,9.40
2018-07-10T02:30:19.965Z,9.23
2018-07-10T02:32:48.525Z,9.60
2018-07-10T02:35:17.169Z,8.77
2018-07-10T02:37:47.188Z,9.07
2018-07-10T02:40:15.777Z,8.37
2018-07-10T02:42:44.945Z,8.70
2018-07-10T02:45:14.589Z,9.07
2018-07-10T02:47:43.582Z,8.73
2018-07-10T02:50:12.204Z,8.57
2018-07-10T02:52:42.119Z,8.07
2018-07-10T02:55:10.791Z,8.00
2018-07-10T02:57:39.443Z,7.40
2018-07-10T03:00:08.093Z,6.90
2018-07-10T03:02:36.719Z,6.30
2018-07-10T03:05:07.241Z,6.33
2018-07-10T03:07:37.563Z,6.17
2018-07-10T03:10:06.171Z,7.07
2018-07-10T03:12:36.117Z,6.90
2018-07-10T03:15:08.653Z,6.80
2018-07-10T03:17:37.226Z,8.27
2018-07-10T03:20:06.678Z,8.73
2018-07-10T03:22:35.517Z,8.40
2018-07-10T03:25:04.232Z,8.40
2018-07-10T03:27:33.846Z,8.30
2018-07-10T03:30:03.138Z,7.47
2018-07-10T03:32:32.134Z,8.27
2018-07-10T03:35:00.953Z,7.50
2018-07-10T03:37:29.483Z,7.80
2018-07-10T03:39:58.179Z,6.50
2018-07-10T03:42:28.429Z,6.27
2018-07-10T03:44:57.270Z,6.00
2018-07-10T03:47:27.412Z,6.23
2018-07-10T03:49:55.973Z,5.70
2018-07-10T03:52:28.668Z,5.10
2018-07-10T03:54:58.759Z,4.83
2018-07-10T03:57:27.390Z,5.77
2018-07-10T03:59:59.051Z,6.93
2018-07-10T04:02:27.690Z,7.57
2018-07-10T04:04:56.395Z,6.77
2018-07-10T04:07:25.935Z,7.10
2018-07-10T04:09:56.561Z,8.47
2018-07-10T04:12:34.123Z,9.13
2018-07-10T04:15:03.675Z,9.00
2018-07-10T04:17:39.333Z,8.57
2018-07-10T04:20:08.534Z,7.87
2018-07-10T04:22:39.680Z,8.07
2018-07-10T04:25:09.008Z,7.70
2018-07-10T04:27:58.898Z,6.77
2018-07-10T04:31:34.689Z,6.10
2018-07-10T04:34:03.349Z,5.90
2018-07-10T04:36:32.053Z,6.00
2018-07-10T04:39:00.683Z,5.70
2018-07-10T04:41:31.723Z,6.20
2018-07-10T04:44:08.239Z,5.63
2018-07-10T04:46:40.857Z,5.77
2018-07-10T04:49:16.531Z,6.27
2018-07-10T04:51:48.179Z,6.10
2018-07-10T04:54:25.032Z,6.50
2018-07-10T04:57:03.351Z,6.87
2018-07-10T04:59:34.224Z,6.63
2018-07-10T05:02:03.498Z,7.23
2018-07-10T05:04:32.231Z,7.80
2018-07-10T05:07:04.858Z,7.93
2018-07-10T05:09:34.300Z,8.00
2018-07-10T05:12:02.998Z,7.50
2018-07-10T05:14:31.522Z,6.87
2018-07-10T05:17:00.457Z,7.90
2018-07-10T05:19:29.396Z,7.90
2018-07-10T05:21:58.052Z,7.53
2018-07-10T05:24:26.676Z,7.17
2018-07-10T05:26:55.356Z,6.83
2018-07-10T05:29:24.100Z,6.77
2018-07-10T05:31:52.859Z,7.53
2018-07-10T05:34:21.559Z,7.30
2018-07-10T05:36:50.844Z,7.80
2018-07-10T05:39:19.477Z,7.30
2018-07-10T05:41:48.581Z,7.17
2018-07-10T05:44:21.581Z,6.53
2018-07-10T05:46:50.472Z,6.27
2018-07-10T05:49:19.105Z,6.57
2018-07-10T05:51:52.185Z,6.30
2018-07-10T05:54:21.670Z,5.90
2018-07-10T05:56:50.313Z,6.13
2018-07-10T05:59:18.854Z,5.87
2018-07-10T06:01:47.468Z,6.87
2018-07-10T06:04:17.376Z,6.80
2018-07-10T06:06:46.787Z,6.80
2018-07-10T06:09:16.627Z,7.13
2018-07-10T06:11:45.630Z,6.97
2018-07-10T06:14:15.047Z,6.47
2018-07-10T06:16:44.081Z,6.50
2018-07-10T06:19:12.653Z,6.17
2018-07-10T06:21:44.890Z,5.80
2018-07-10T06:24:17.454Z,6.23
2018-07-10T06:26:54.376Z,5.90
2018-07-10T06:29:24.732Z,5.70
2018-07-10T06:31:55.658Z,5.90
2018-07-10T06:34:32.910Z,6.27
2018-07-10T06:37:11.794Z,5.70
2018-07-10T06:39:40.786Z,5.60
2018-07-10T06:42:16.407Z,6.17
2018-07-10T06:44:47.763Z,5.83
2018-07-10T06:47:20.906Z,5.20
2018-07-10T06:49:50.287Z,4.73
2018-07-10T06:52:20.177Z,4.30
2018-07-10T06:55:03.812Z,4.10
2018-07-10T06:57:33.694Z,4.17
2018-07-10T07:00:10.522Z,4.03
2018-07-10T07:02:39.658Z,4.20
2018-07-10T07:05:08.497Z,3.60
2018-07-10T07:07:38.245Z,4.20
2018-07-10T07:10:08.552Z,4.30
2018-07-10T07:12:38.010Z,4.53
2018-07-10T07:15:10.398Z,4.70
2018-07-10T07:17:45.201Z,4.27
2018-07-10T07:20:13.691Z,4.50
2018-07-10T07:22:42.195Z,3.90
2018-07-10T07:25:10.731Z,3.60
2018-07-10T07:27:39.295Z,3.80
2018-07-10T07:30:07.840Z,3.80
2018-07-10T07:32:36.673Z,3.77
2018-07-10T07:35:05.372Z,3.37
2018-07-10T07:37:37.518Z,4.20
2018-07-10T07:40:06.284Z,4.10
2018-07-10T07:42:36.323Z,4.00
2018-07-10T07:45:04.935Z,4.13
2018-07-10T07:47:33.514Z,3.83
2018-07-10T07:50:02.112Z,3.90
2018-07-10T07:52:31.768Z,3.53
2018-07-10T07:55:02.306Z,3.70
2018-07-10T07:57:30.947Z,3.33
2018-07-10T07:59:59.548Z,3.40
2018-07-10T08:02:28.134Z,3.60
2018-07-10T08:04:56.714Z,3.40
2018-07-10T08:07:25.858Z,3.67
2018-07-10T08:09:56.564Z,3.43
2018-07-10T08:12:26.366Z,3.63
2018-07-10T08:14:55.353Z,3.30
2018-07-10T08:17:24.948Z,3.80
2018-07-10T08:19:55.149Z,3.53
2018-07-10T08:22:24.660Z,3.50
2018-07-10T08:24:53.462Z,3.77
2018-07-10T08:27:22.558Z,3.70
2018-07-10T08:29:51.158Z,3.30
2018-07-10T08:32:19.705Z,3.43
2018-07-10T08:34:48.285Z,3.50
2018-07-10T08:37:16.877Z,3.77
2018-07-10T08:39:46.115Z,3.40
2018-07-10T08:42:14.735Z,3.77
2018-07-10T08:44:43.432Z,3.50
2018-07-10T08:47:12.026Z,3.83
2018-07-10T08:49:41.608Z,3.67
2018-07-10T08:52:11.873Z,3.60
2018-07-10T08:54:40.494Z,3.60
2018-07-10T08:57:09.074Z,3.53
2018-07-10T08:59:38.538Z,3.47
2018-07-10T09:02:07.325Z,3.45
2018-07-10T09:04:35.933Z,3.22
2018-07-10T09:07:05.427Z,3.17
2018-07-10T09:09:34.027Z,2.90
2018-07-10T09:12:02.609Z,2.90
2018-07-10T09:14:31.173Z,2.90
2018-07-10T09:16:59.710Z,2.90
2018-07-10T09:19:29.669Z,2.70
2018-07-10T09:22:06.574Z,2.80
2018-07-10T09:24:37.280Z,2.42
2018-07-10T09:27:08.432Z,2.90
2018-07-10T09:29:38.207Z,2.95
2018-07-10T09:32:07.551Z,3.10
2018-07-10T09:34:36.213Z,3.05
2018-07-10T09:37:09.165Z,3.00
2018-07-10T09:39:37.879Z,2.80
2018-07-10T09:42:09.180Z,3.80
2018-07-10T09:44:37.793Z,3.40
2018-07-10T09:47:06.462Z,3.10
2018-07-10T09:49:35.078Z,3.10
2018-07-10T09:52:03.704Z,3.50
2018-07-10T09:54:32.381Z,3.20
2018-07-10T09:57:01.115Z,2.58
2018-07-10T09:59:30.031Z,3.00
2018-07-10T10:02:02.784Z,2.40
2018-07-10T10:04:32.466Z,2.70
2018-07-10T10:07:01.418Z,2.60
2018-07-10T10:09:30.097Z,2.60
2018-07-10T10:11:58.924Z,2.77
2018-07-10T10:14:27.582Z,2.42
2018-07-10T10:16:56.229Z,2.90
2018-07-10T10:19:24.805Z,2.40
2018-07-10T10:21:53.829Z,2.50
2018-07-10T10:24:22.416Z,3.70
2018-07-10T10:26:51.130Z,2.80
2018-07-10T10:29:19.866Z,2.40
2018-07-10T10:31:48.481Z,2.75
2018-07-10T10:34:17.058Z,2.62
2018-07-10T10:36:45.662Z,2.08
2018-07-10T10:39:14.230Z,2.70
2018-07-10T10:41:42.843Z,2.20
2018-07-10T10:44:11.434Z,2.10
2018-07-10T10:46:44.267Z,2.20
2018-07-10T10:49:12.922Z,4.55
2018-07-10T10:51:42.226Z,2.00
2018-07-10T10:54:10.773Z,2.20
2018-07-10T10:56:39.364Z,2.17
2018-07-10T10:59:07.967Z,2.00
2018-07-10T11:01:37.016Z,2.10
2018-07-10T11:04:06.297Z,2.10
2018-07-10T11:06:34.880Z,2.17
2018-07-10T11:09:03.761Z,2.22
2018-07-10T11:11:33.281Z,2.20
2018-07-10T11:14:03.602Z,2.10
2018-07-10T11:16:32.214Z,2.20
2018-07-10T11:19:07.348Z,2.33
2018-07-10T11:21:43.331Z,2.22
2018-07-10T11:24:13.242Z,2.10
2018-07-10T11:26:45.182Z,2.42
2018-07-10T11:29:14.885Z,2.33
2018-07-10T11:31:43.492Z,2.42
2018-07-10T11:34:12.212Z,2.30
2018-07-10T11:36:40.814Z,2.52
2018-07-10T11:39:10.903Z,2.40
2018-07-10T11:41:59.125Z,2.42
2018-07-10T11:44:27.685Z,2.40
2018-07-10T11:46:56.254Z,2.30
2018-07-10T12:04:52.680Z,2.50
2018-07-10T12:07:21.274Z,2.58
2018-07-10T12:10:00.933Z,2.50
2018-07-10T12:12:29.604Z,2.50
2018-07-10T12:14:58.146Z,3.23
2018-07-10T12:17:26.861Z,11.90
2018-07-10T12:19:55.509Z,4.20
2018-07-10T12:22:24.663Z,4.70
2018-07-10T12:24:53.273Z,4.80
2018-07-10T12:27:21.963Z,5.23
2018-07-10T12:29:50.837Z,5.50
2018-07-10T12:32:19.499Z,6.30
2018-07-10T12:34:48.190Z,5.53
2018-07-10T12:37:17.613Z,5.60
2018-07-10T12:39:46.866Z,5.10
2018-07-10T12:42:15.677Z,4.60
2018-07-10T12:44:44.763Z,4.43
2018-07-10T12:47:14.475Z,3.90
2018-07-10T12:49:43.134Z,3.37
2018-07-10T12:52:12.496Z,3.07
2018-07-10T12:54:41.117Z,2.70
2018-07-10T12:57:10.614Z,2.70
2018-07-10T12:59:39.292Z,2.30
2018-07-10T13:02:07.957Z,2.10
2018-07-10T13:04:37.065Z,2.57
2018-07-10T13:07:05.755Z,2.20
2018-07-10T13:09:34.458Z,2.10
2018-07-10T13:12:03.462Z,2.00
2018-07-10T13:14:32.147Z,2.10
2018-07-10T13:17:01.762Z,2.20
2018-07-10T13:19:31.348Z,2.00
2018-07-10T13:22:01.011Z,2.27
2018-07-10T13:24:29.897Z,2.30
2018-07-10T13:26:58.578Z,1.92
2018-07-10T13:29:27.218Z,1.98
2018-07-10T13:31:55.976Z,1.82
2018-07-10T13:34:24.954Z,1.90
2018-07-10T13:36:54.211Z,1.90
2018-07-10T13:39:22.901Z,2.10
2018-07-10T13:41:51.527Z,2.12
2018-07-10T13:44:20.223Z,2.00
2018-07-10T13:46:48.860Z,2.02
2018-07-10T13:49:17.480Z,2.00
2018-07-10T13:51:45.941Z,2.30
2018-07-10T13:54:15.243Z,2.57
2018-07-10T13:56:44.114Z,2.63
2018-07-10T13:59:12.742Z,3.10
2018-07-10T14:01:41.467Z,3.00
2018-07-10T14:04:22.568Z,3.17
2018-07-10T14:06:51.100Z,3.70
2018-07-10T14:09:19.674Z,3.43
2018-07-10T14:11:48.326Z,3.50
2018-07-10T14:14:17.282Z,3.70
2018-07-10T14:16:52.051Z,3.37
2018-07-10T14:19:20.723Z,3.20
2018-07-10T14:21:49.333Z,3.30
2018-07-10T14:24:17.967Z,2.90
2018-07-10T14:26:46.760Z,3.23
2018-07-10T14:29:16.263Z,3.20
2018-07-10T14:31:44.910Z,3.60
2018-07-10T14:34:13.582Z,3.90
2018-07-10T14:36:42.201Z,3.87
2018-07-10T14:39:10.925Z,3.93
2018-07-10T14:41:40.127Z,4.87
2018-07-10T14:44:10.983Z,4.60
2018-07-10T14:46:39.611Z,4.40
2018-07-10T14:49:08.360Z,4.70
2018-07-10T14:51:44.711Z,4.80
2018-07-10T14:54:13.356Z,4.70
2018-07-10T14:56:42.198Z,4.67
2018-07-10T14:59:11.298Z,4.77
2018-07-10T15:01:40.733Z,4.77
2018-07-10T15:04:09.797Z,5.00
2018-07-10T15:06:38.512Z,4.33
2018-07-10T15:09:08.485Z,4.40
2018-07-10T15:11:37.122Z,4.10
2018-07-10T15:14:09.268Z,4.10
2018-07-10T15:16:43.243Z,4.27
2018-07-10T15:19:11.826Z,3.90
2018-07-10T15:21:40.489Z,3.80
2018-07-10T15:24:09.930Z,3.30
2018-07-10T15:26:38.574Z,3.40
2018-07-10T15:29:07.178Z,3.20
2018-07-10T15:31:35.884Z,2.90
2018-07-10T15:34:04.819Z,2.97
2018-07-10T15:36:33.442Z,3.03
2018-07-10T15:39:03.364Z,3.10
2018-07-10T15:41:32.009Z,3.20
2018-07-10T15:44:00.639Z,3.30
2018-07-10T15:46:29.222Z,3.37
2018-07-10T15:48:57.767Z,3.80
2018-07-10T15:52:51.586Z,4.00
2018-07-10T15:55:20.653Z,4.30
2018-07-10T15:57:49.989Z,4.67
2018-07-10T16:00:18.605Z,4.50
2018-07-10T16:02:47.381Z,5.43
2018-07-10T16:05:16.005Z,5.97
2018-07-10T16:07:44.580Z,5.53
2018-07-10T16:10:13.314Z,5.37
2018-07-10T16:12:41.920Z,6.40
2018-07-10T16:15:10.588Z,7.23
2018-07-10T16:17:39.195Z,4.90
2018-07-10T16:20:09.740Z,5.27
2018-07-10T16:22:42.317Z,7.00
2018-07-10T16:25:32.761Z,5.70
2018-07-10T16:28:10.041Z,5.03
2018-07-10T16:30:38.692Z,4.83
2018-07-10T16:33:07.229Z,5.40
2018-07-10T16:35:35.779Z,5.20
2018-07-10T16:38:04.363Z,4.73
2018-07-10T16:40:32.921Z,5.43
2018-07-10T16:43:01.591Z,4.77
2018-07-10T16:45:35.713Z,5.00
2018-07-10T16:48:23.655Z,4.47
2018-07-10T16:51:01.274Z,5.37
2018-07-10T16:53:36.292Z,5.53
2018-07-10T16:56:04.948Z,7.70
2018-07-10T16:58:35.373Z,6.57
2018-07-10T17:01:04.325Z,7.13
2018-07-10T17:03:32.873Z,7.20
2018-07-10T17:06:01.718Z,6.90
2018-07-10T17:08:30.341Z,7.80
2018-07-10T17:10:58.878Z,8.77
2018-07-10T17:13:27.430Z,7.67
2018-07-10T17:15:58.141Z,8.60
2018-07-10T17:18:26.753Z,7.20
2018-07-10T17:20:58.237Z,7.20
2018-07-10T17:23:26.869Z,7.83
2018-07-10T17:25:56.105Z,8.90
2018-07-10T17:28:24.711Z,9.10
2018-07-10T17:30:53.278Z,7.90
2018-07-10T17:33:21.917Z,6.93
2018-07-10T17:35:50.458Z,7.80
2018-07-10T17:38:19.078Z,8.40
2018-07-10T17:40:47.645Z,9.10
2018-07-10T17:43:16.876Z,8.03
2018-07-10T17:45:45.380Z,10.00
2018-07-10T17:48:13.929Z,8.23
2018-07-10T17:50:42.457Z,8.40
2018-07-10T17:53:11.042Z,8.57
2018-07-10T17:55:39.584Z,7.77
2018-07-10T17:58:08.285Z,7.27
2018-07-10T18:00:37.940Z,7.63
2018-07-10T18:03:06.513Z,7.30
2018-07-10T18:05:35.139Z,7.57
2018-07-10T18:08:03.795Z,8.20
2018-07-10T18:10:32.658Z,7.77
2018-07-10T18:13:01.260Z,8.30
2018-07-10T18:15:29.828Z,8.00
2018-07-10T18:17:58.437Z,8.17
2018-07-10T18:20:29.316Z,7.97
2018-07-10T18:22:58.018Z,7.93
2018-07-10T18:25:26.403Z,8.07
2018-07-10T18:27:55.011Z,8.00
2018-07-10T18:30:26.881Z,8.13
2018-07-10T18:32:55.492Z,7.70
2018-07-10T18:35:24.027Z,8.03
2018-07-10T18:37:52.664Z,8.03
2018-07-10T18:40:21.191Z,8.40
2018-07-10T18:42:50.082Z,8.00
2018-07-10T18:45:18.689Z,8.43
2018-07-10T18:47:47.921Z,8.40
2018-07-10T18:50:17.953Z,8.30
2018-07-10T18:52:48.956Z,8.43
2018-07-10T18:55:17.482Z,8.47
2018-07-10T18:57:56.637Z,8.63
2018-07-10T19:00:36.981Z,9.03
2018-07-10T19:03:10.632Z,8.63
2018-07-10T19:05:48.717Z,8.90
2018-07-10T19:08:18.323Z,8.70
2018-07-10T19:10:47.895Z,8.83
2018-07-10T19:13:17.458Z,9.67
2018-07-10T19:15:47.475Z,8.60
2018-07-10T19:18:16.197Z,8.93
2018-07-10T19:20:51.550Z,8.40
2018-07-10T19:23:26.015Z,9.47
2018-07-10T19:25:55.681Z,9.07
2018-07-10T19:28:24.567Z,9.10
2018-07-10T19:31:05.523Z,9.23
2018-07-10T19:33:34.647Z,10.00
2018-07-10T19:36:03.242Z,10.40
2018-07-10T19:38:33.955Z,10.17
2018-07-10T19:41:03.609Z,11.20
2018-07-10T19:43:33.057Z,10.90
2018-07-10T19:46:01.619Z,11.27
2018-07-10T19:48:30.980Z,10.83
2018-07-10T19:50:59.549Z,11.63
2018-07-10T19:53:28.587Z,10.80
2018-07-10T19:55:57.161Z,10.80
2018-07-10T19:58:31.075Z,11.63
2018-07-10T20:01:11.111Z,12.07
2018-07-10T20:03:46.874Z,12.33
2018-07-10T20:06:21.101Z,12.40
2018-07-10T20:08:49.668Z,12.37
2018-07-10T20:11:23.193Z,12.07
2018-07-10T20:13:51.986Z,13.40
2018-07-10T20:16:27.921Z,14.13
2018-07-10T20:20:13.278Z,17.60
2018-07-10T20:22:53.000Z,18.07
2018-07-10T20:27:40.837Z,14.67
2018-07-10T20:30:26.432Z,13.23
2018-07-10T20:33:01.165Z,15.53
2018-07-10T20:35:33.124Z,15.03
2018-07-10T20:38:01.645Z,15.00
2018-07-10T20:40:34.423Z,21.10
2018-07-10T20:43:16.192Z,15.10
2018-07-10T20:45:48.168Z,17.03
2018-07-10T20:48:32.029Z,20.00
2018-07-10T20:51:05.059Z,16.70
2018-07-10T20:53:38.635Z,17.30
2018-07-10T20:57:27.992Z,16.50
2018-07-10T21:00:03.188Z,23.40
2018-07-10T21:03:44.377Z,18.70
2018-07-10T21:06:22.087Z,16.43
2018-07-10T21:09:01.922Z,17.07
2018-07-10T21:11:36.545Z,16.43
2018-07-10T21:14:14.533Z,17.57
2018-07-10T21:16:55.344Z,17.47
2018-07-10T21:19:39.401Z,21.90
2018-07-10T21:22:17.891Z,20.40
2018-07-10T21:24:49.270Z,16.43
2018-07-10T21:27:31.610Z,16.60
2018-07-10T21:30:11.582Z,16.17
2018-07-10T21:32:51.136Z,16.60
2018-07-10T21:35:21.480Z,15.53
2018-07-10T21:40:12.236Z,15.50
2018-07-10T21:42:52.321Z,15.50
2018-07-10T21:45:32.756Z,15.20
2018-07-10T21:50:15.687Z,15.03
2018-07-10T21:52:44.225Z,15.13
2018-07-10T21:55:12.743Z,15.07
2018-07-10T21:57:41.945Z,14.43
2018-07-10T22:00:10.478Z,13.20
2018-07-10T22:02:39.073Z,13.63
2018-07-10T22:05:07.564Z,13.10
2018-07-10T22:07:36.182Z,13.53
2018-07-10T22:10:07.419Z,11.93
2018-07-10T22:12:41.774Z,13.20
2018-07-10T22:15:10.308Z,12.53
2018-07-10T22:17:39.401Z,13.40
2018-07-10T22:20:08.659Z,13.63
2018-07-10T22:22:37.226Z,13.07
2018-07-10T22:25:08.402Z,13.37
2018-07-10T22:27:40.277Z,13.57
2018-07-10T22:30:15.710Z,13.60
2018-07-10T22:32:49.330Z,13.87
2018-07-10T22:35:17.918Z,13.20
2018-07-10T22:37:47.598Z,14.20
2018-07-10T22:40:17.354Z,14.10
2018-07-10T22:42:46.769Z,13.20
2018-07-10T22:45:16.917Z,12.67
2018-07-10T22:47:46.129Z,12.73
2018-07-10T22:50:17.713Z,12.07
2018-07-10T22:52:52.385Z,12.20
2018-07-10T22:55:24.478Z,12.10
2018-07-10T22:57:53.653Z,11.30
2018-07-10T23:00:32.675Z,11.30
2018-07-10T23:03:05.573Z,11.77
2018-07-10T23:05:34.872Z,11.20
2018-07-10T23:08:03.429Z,10.77
2018-07-10T23:10:32.005Z,11.03
2018-07-10T23:13:00.642Z,11.07
2018-07-10T23:15:30.507Z,11.10
2018-07-10T23:17:59.884Z,10.27
2018-07-10T23:20:28.457Z,9.73
2018-07-10T23:22:57.761Z,10.53
2018-07-10T23:25:27.488Z,9.83
2018-07-10T23:28:01.878Z,10.47
2018-07-10T23:30:33.730Z,11.43
2018-07-10T23:33:02.271Z,10.83
2018-07-10T23:35:33.186Z,11.50
2018-07-10T23:38:07.210Z,10.63
2018-07-10T23:40:39.513Z,10.80
2018-07-10T23:43:08.070Z,10.40
2018-07-10T23:45:37.334Z,10.60
2018-07-10T23:48:06.841Z,10.97
2018-07-10T23:50:37.192Z,11.43
2018-07-10T23:54:00.957Z,10.00
2018-07-10T23:56:29.504Z,9.97
2018-07-10T23:58:59.353Z,10.17
